Terminal Aerodrome Forecast
Issued by NWS

Current Version | Previous Version | Text Only | Print | Product List | Glossary Off
Versions: 1 2 3 4 5 6 7 8 9 10 11 12 13 14 15 16 17 18 19 20 21 22 23 24 25

118
FTUS41 KILN 022116 AAA
TAFLCK
TAF AMD
KLCK 022116Z 0221/0318 36008KT P6SM SCT020 OVC040
     FM030100 36008KT P6SM BKN020 OVC040
     FM030900 36005KT 6SM BR BKN015 OVC025
     FM031400 36006KT P6SM SCT015 OVC025=

USA.gov is the U.S. government's official web portal to all federal, state and local government web resources and services.